Quadra Queen II — VGTT — position and weather

sailwx.info

Track history (hours):
 
Tides and Currents Weather Stations Pressure Air Temp Water Temp Dewpoint Dewpoint Depression Visibility Wind Speed Wind Dir Waves Ship Positions

Quadra Queen II

Last reported at 2018-Jul-16 17:30 UTC. Time now 2018-Jul-16 17:38 UTC.
Position N 50°07' W 125°10'.

Length 50 m; draft 2.8 m.

Type: Ship. MMSI: 316001244.

Date/timePositionNaut miles runAvg speedWind from/ knotsBaromVisibWave heightAir tempDewpointWater temp
2018-Jul-16 17:30N 50°07' W 125°10'4 8.2
2018-Jul-16 17:00N 50°07' W 125°03'3 6.0
2018-Jul-16 16:30N 50°06' W 125°08'3 6.1
2018-Jul-16 16:00N 50°06' W 125°13'0 0.2
2018-Jul-16 15:30N 50°06' W 125°13'510.6
2018-Jul-16 15:00N 50°06' W 125°04'1 1.5
2018-Jul-16 14:30N 50°07' W 125°03'0 0.0
2018-Jul-16 13:55N 50°07' W 125°03'0 0.0
2018-Jul-16 13:28N 50°07' W 125°03'0 0.0
2018-Jul-16 12:55N 50°07' W 125°03'0 0.0
2018-Jul-16 12:25N 50°07' W 125°03'0 0.0
2018-Jul-16 11:58N 50°07' W 125°03'0 0.0
2018-Jul-16 11:28N 50°07' W 125°03'0 0.0
2018-Jul-16 10:58N 50°07' W 125°03'0 0.0
2018-Jul-16 10:28N 50°07' W 125°03'0 0.0
2018-Jul-16 09:58N 50°07' W 125°03'0 0.0
2018-Jul-16 09:28N 50°07' W 125°03'0 0.0
2018-Jul-16 08:58N 50°07' W 125°03'0 0.0
2018-Jul-16 08:28N 50°07' W 125°03'0 0.0
2018-Jul-16 07:58N 50°07' W 125°03'0 0.0
2018-Jul-16 07:28N 50°07' W 125°03'0 0.0
2018-Jul-16 06:58N 50°07' W 125°03'0 0.0
2018-Jul-16 06:28N 50°07' W 125°03'0 0.0
2018-Jul-16 05:55N 50°07' W 125°03'0 0.0
2018-Jul-16 05:28N 50°07' W 125°03'0 0.0
2018-Jul-16 04:58N 50°07' W 125°03'0 0.0
2018-Jul-16 04:28N 50°07' W 125°03'0 0.0
2018-Jul-16 03:58N 50°07' W 125°03'0 0.0
2018-Jul-16 03:28N 50°07' W 125°03'0 0.0
2018-Jul-16 02:58N 50°07' W 125°03'0 0.0
2018-Jul-16 02:28N 50°07' W 125°03'3 7.4
2018-Jul-16 02:01N 50°06' W 125°09'3 5.3
2018-Jul-16 01:30N 50°06' W 125°13'5 9.8
2018-Jul-16 01:00N 50°06' W 125°05'1 1.1
2018-Jul-16 00:30N 50°06' W 125°06'4 8.6
2018-Jul-16 00:00N 50°06' W 125°13'0 0.1
2018-Jul-15 23:31N 50°06' W 125°13'510.9
2018-Jul-15 23:00N 50°06' W 125°04'2 3.6
2018-Jul-15 22:30N 50°06' W 125°07'4 6.4
2018-Jul-15 21:56N 50°06' W 125°13'1 1.6
2018-Jul-15 21:30N 50°07' W 125°12'611.0
2018-Jul-15 21:00N 50°07' W 125°03'2 4.4
2018-Jul-15 20:30N 50°06' W 125°07'4 7.6
2018-Jul-15 20:01N 50°06' W 125°13'0 0.9
2018-Jul-15 19:30N 50°07' W 125°12'611.4
2018-Jul-15 19:00N 50°06' W 125°03'2 4.3
2018-Jul-15 18:30N 50°06' W 125°07'4 7.7
2018-Jul-15 18:01N 50°06' W 125°13'0 0.0
2018-Jul-15 17:30N 50°06' W 125°13'510.2
2018-Jul-15 17:00N 50°06' W 125°05'1 1.2
2018-Jul-15 16:31N 50°06' W 125°06'4 8.9
2018-Jul-15 16:00N 50°06' W 125°13'0 0.0
2018-Jul-15 15:30N 50°06' W 125°13'5 9.4
2018-Jul-15 15:00N 50°06' W 125°05'1 2.8
2018-Jul-15 14:31N 50°07' W 125°03'0 0.0
2018-Jul-15 13:58N 50°07' W 125°03'0 0.0
2018-Jul-15 13:28N 50°07' W 125°03'0 0.0
2018-Jul-15 12:55N 50°07' W 125°03'0 0.0
2018-Jul-15 12:28N 50°07' W 125°03'0 0.0
2018-Jul-15 11:58N 50°07' W 125°03'0 0.0
2018-Jul-15 11:28N 50°07' W 125°03'0 0.0
2018-Jul-15 10:58N 50°07' W 125°03'0 0.0
2018-Jul-15 10:28N 50°07' W 125°03'0 0.0
2018-Jul-15 09:58N 50°07' W 125°03'0 0.0
2018-Jul-15 09:28N 50°07' W 125°03'0 0.0
2018-Jul-15 08:58N 50°07' W 125°03'0 0.0
2018-Jul-15 08:28N 50°07' W 125°03'0 0.0
2018-Jul-15 07:58N 50°07' W 125°03'0 0.0
2018-Jul-15 07:28N 50°07' W 125°03'0 0.0
2018-Jul-15 06:58N 50°07' W 125°03'0 0.0
2018-Jul-15 06:28N 50°07' W 125°03'0 0.0
2018-Jul-15 05:58N 50°07' W 125°03'0 0.0
2018-Jul-15 05:28N 50°07' W 125°03'0 0.0
2018-Jul-15 04:55N 50°07' W 125°03'0 0.0
2018-Jul-15 04:25N 50°07' W 125°03'0 0.0
2018-Jul-15 03:58N 50°07' W 125°03'0 0.0
2018-Jul-15 03:28N 50°07' W 125°03'0 0.0
2018-Jul-15 02:58N 50°07' W 125°03'0 0.0
2018-Jul-15 02:28N 50°07' W 125°03'3 7.1
2018-Jul-15 02:01N 50°07' W 125°08'3 5.6
2018-Jul-15 01:30N 50°06' W 125°13'5 9.9
2018-Jul-15 01:00N 50°06' W 125°05'0 0.9
2018-Jul-15 00:30N 50°06' W 125°06'5 8.7
2018-Jul-15 00:00N 50°06' W 125°13'0 0.0
2018-Jul-14 23:30N 50°06' W 125°13'5 9.7
2018-Jul-14 23:00N 50°06' W 125°05'0 0.5
2018-Jul-14 22:31N 50°06' W 125°06'5 8.9
2018-Jul-14 22:00N 50°06' W 125°13'0 0.1
2018-Jul-14 21:31N 50°06' W 125°13'611.1
2018-Jul-14 21:01N 50°06' W 125°04'2 3.5
2018-Jul-14 20:30N 50°06' W 125°07'4 7.5
2018-Jul-14 20:00N 50°06' W 125°13'0 0.5
2018-Jul-14 19:30N 50°06' W 125°13'611.3
2018-Jul-14 19:00N 50°06' W 125°04'2 3.5
2018-Jul-14 18:31N 50°06' W 125°06'4 7.9
2018-Jul-14 18:01N 50°06' W 125°13'0 0.1
2018-Jul-14 17:30N 50°06' W 125°13'510.2
2018-Jul-14 17:00N 50°06' W 125°05'0 0.8
2018-Jul-14 16:31N 50°06' W 125°05'5 9.4
2018-Jul-14 16:00N 50°06' W 125°13'0 0.0
2018-Jul-14 15:30N 50°06' W 125°13'5 9.3
2018-Jul-14 15:00N 50°06' W 125°05'1 2.4
2018-Jul-14 14:25N 50°07' W 125°03'0 0.0
2018-Jul-14 13:25N 50°07' W 125°03'0 0.0
2018-Jul-14 12:55N 50°07' W 125°03'0 0.0
2018-Jul-14 12:25N 50°07' W 125°03'0 0.0
2018-Jul-14 11:55N 50°07' W 125°03'0 0.0
2018-Jul-14 11:25N 50°07' W 125°03'0 0.0
2018-Jul-14 10:55N 50°07' W 125°03'0 0.0
2018-Jul-14 10:25N 50°07' W 125°03'0 0.0
2018-Jul-14 09:55N 50°07' W 125°03'0 0.0
2018-Jul-14 09:25N 50°07' W 125°03'0 0.0
2018-Jul-14 08:55N 50°07' W 125°03'0 0.0
2018-Jul-14 08:25N 50°07' W 125°03'0 0.0
2018-Jul-14 07:55N 50°07' W 125°03'0 0.0
2018-Jul-14 07:25N 50°07' W 125°03'0 0.0
2018-Jul-14 06:55N 50°07' W 125°03'0 0.0
2018-Jul-14 06:25N 50°07' W 125°03'0 0.0
2018-Jul-14 05:55N 50°07' W 125°03'0 0.0
2018-Jul-14 05:25N 50°07' W 125°03'0 0.0
2018-Jul-14 04:55N 50°07' W 125°03'0 0.0
2018-Jul-14 04:25N 50°07' W 125°03'0 0.0
2018-Jul-14 03:55N 50°07' W 125°03'0 0.0
2018-Jul-14 03:25N 50°07' W 125°03'0 0.0
2018-Jul-14 02:55N 50°07' W 125°03'2 6.0
2018-Jul-14 02:30N 50°06' W 125°07'4 7.2
2018-Jul-14 02:00N 50°06' W 125°13'1 1.7
2018-Jul-14 01:30N 50°07' W 125°12'510.6
2018-Jul-14 01:00N 50°07' W 125°03'3 5.3
2018-Jul-14 00:30N 50°06' W 125°07'3 6.9
2018-Jul-14 00:00N 50°06' W 125°13'0 0.0
2018-Jul-13 23:30N 50°06' W 125°13'510.3
2018-Jul-13 23:00N 50°06' W 125°05'1 1.6
2018-Jul-13 22:30N 50°06' W 125°06'4 8.8
2018-Jul-13 22:00N 50°06' W 125°13'3 5.8
2018-Jul-13 21:30N 50°06' W 125°08'3 6.4
2018-Jul-13 21:00N 50°07' W 125°03'3 6.1
2018-Jul-13 20:30N 50°06' W 125°08'3 6.0
2018-Jul-13 20:00N 50°06' W 125°13'3 6.1
2018-Jul-13 19:30N 50°06' W 125°08'3 6.0
2018-Jul-13 19:00N 50°07' W 125°03'4 7.4
2018-Jul-13 18:30N 50°06' W 125°09'2 4.6
2018-Jul-13 17:59N 50°06' W 125°13'3 7.1
2018-Jul-13 17:30N 50°06' W 125°07'3 5.3
2018-Jul-13 17:00N 50°07' W 125°03'3 5.9
2018-Jul-13 16:30N 50°06' W 125°08'3 6.2
2018-Jul-13 16:00N 50°06' W 125°13'0 0.2
2018-Jul-13 15:30N 50°06' W 125°13'510.6
2018-Jul-13 15:00N 50°06' W 125°04'1 1.5
2018-Jul-13 14:30N 50°07' W 125°03'0 0.0
2018-Jul-13 13:28N 50°07' W 125°03'0 0.0
2018-Jul-13 12:55N 50°07' W 125°03'0 0.0
2018-Jul-13 12:28N 50°07' W 125°03'0 0.0
2018-Jul-13 11:58N 50°07' W 125°03'0 0.0
2018-Jul-13 11:28N 50°07' W 125°03'0 0.0
2018-Jul-13 10:55N 50°07' W 125°03'0 0.0
2018-Jul-13 10:28N 50°07' W 125°03'0 0.0
2018-Jul-13 09:58N 50°07' W 125°03'0 0.0
2018-Jul-13 09:28N 50°07' W 125°03'0 0.0
2018-Jul-13 08:58N 50°07' W 125°03'0 0.0
2018-Jul-13 08:28N 50°07' W 125°03'0 0.0
2018-Jul-13 07:55N 50°07' W 125°03'0 0.0
2018-Jul-13 07:25N 50°07' W 125°03'0 0.0
2018-Jul-13 06:58N 50°07' W 125°03'0 0.0
2018-Jul-13 06:25N 50°07' W 125°03'0 0.0
2018-Jul-13 05:55N 50°07' W 125°03'0 0.0
2018-Jul-13 05:28N 50°07' W 125°03'0 0.0
2018-Jul-13 04:58N 50°07' W 125°03'0 0.0
2018-Jul-13 04:28N 50°07' W 125°03'0 0.0
2018-Jul-13 03:55N 50°07' W 125°03'0 0.0
2018-Jul-13 03:25N 50°07' W 125°03'0 0.0
2018-Jul-13 02:58N 50°07' W 125°03'2 4.3
2018-Jul-13 02:30N 50°06' W 125°06'4 8.2
2018-Jul-13 02:00N 50°06' W 125°13'2 5.0
2018-Jul-13 01:30N 50°06' W 125°09'4 7.2
2018-Jul-13 01:00N 50°07' W 125°03'3 5.5
2018-Jul-13 00:30N 50°06' W 125°08'3 6.6
2018-Jul-13 00:00N 50°06' W 125°13'1 2.4
2018-Jul-12 23:30N 50°07' W 125°11'5 9.8
2018-Jul-12 23:00N 50°07' W 125°03'2 3.7
2018-Jul-12 22:30N 50°06' W 125°06'4 8.4
2018-Jul-12 22:00N 50°06' W 125°13'2 4.5
2018-Jul-12 21:30N 50°06' W 125°09'4 7.6
2018-Jul-12 21:00N 50°07' W 125°03'3 6.5
2018-Jul-12 20:30N 50°07' W 125°08'3 5.7
2018-Jul-12 20:00N 50°06' W 125°13'510.8
2018-Jul-12 19:30N 50°06' W 125°04'0 0.1
2018-Jul-12 19:00N 50°06' W 125°04'510.7
2018-Jul-12 18:30N 50°06' W 125°13'0 0.0
2018-Jul-12 18:00N 50°06' W 125°13'1 2.8
2018-Jul-12 17:30N 50°06' W 125°11'5 9.4
2018-Jul-12 17:00N 50°07' W 125°03'2 4.8
2018-Jul-12 16:30N 50°06' W 125°07'4 7.4
2018-Jul-12 16:00N 50°06' W 125°13'2 4.4
2018-Jul-12 15:30N 50°06' W 125°09'4 7.7
2018-Jul-12 15:00N 50°07' W 125°03'0 0.0
2018-Jul-12 14:30N 50°07' W 125°03'0 0.0
2018-Jul-12 13:58N 50°07' W 125°03'0 0.0
2018-Jul-12 13:28N 50°07' W 125°03'0 0.0
2018-Jul-12 12:58N 50°07' W 125°03'0 0.0
2018-Jul-12 12:28N 50°07' W 125°03'0 0.0
2018-Jul-12 11:58N 50°07' W 125°03'0 0.0
2018-Jul-12 11:28N 50°07' W 125°03'0 0.0
2018-Jul-12 10:58N 50°07' W 125°03'0 0.0
2018-Jul-12 10:28N 50°07' W 125°03'0 0.0
2018-Jul-12 09:58N 50°07' W 125°03'0 0.0
2018-Jul-12 09:28N 50°07' W 125°03'0 0.0
2018-Jul-12 08:58N 50°07' W 125°03'0 0.0
2018-Jul-12 08:28N 50°07' W 125°03'0 0.0
2018-Jul-12 07:58N 50°07' W 125°03'0 0.0
2018-Jul-12 07:28N 50°07' W 125°03'0 0.0
2018-Jul-12 06:58N 50°07' W 125°03'0 0.0
2018-Jul-12 06:28N 50°07' W 125°03'0 0.0
2018-Jul-12 05:58N 50°07' W 125°03'0 0.0
2018-Jul-12 05:28N 50°07' W 125°03'0 0.0
2018-Jul-12 04:58N 50°07' W 125°03'0 0.0
2018-Jul-12 04:28N 50°07' W 125°03'0 0.0
2018-Jul-12 03:58N 50°07' W 125°03'0 0.0
2018-Jul-12 03:25N 50°07' W 125°03'0 0.0
2018-Jul-12 02:58N 50°07' W 125°03'0 0.0
2018-Jul-12 02:28N 50°07' W 125°03'3 7.4
2018-Jul-12 02:00N 50°06' W 125°09'3 5.4
2018-Jul-12 01:30N 50°06' W 125°13'510.1
2018-Jul-12 01:00N 50°06' W 125°05'0 0.8
2018-Jul-12 00:30N 50°06' W 125°05'5 9.5
2018-Jul-12 00:00N 50°06' W 125°13'2 3.8
2018-Jul-11 23:30N 50°07' W 125°10'4 8.4
2018-Jul-11 23:00N 50°07' W 125°03'3 5.4
2018-Jul-11 22:30N 50°06' W 125°08'3 6.7
2018-Jul-11 22:00N 50°06' W 125°13'1 1.7
2018-Jul-11 21:30N 50°07' W 125°12'510.6
2018-Jul-11 21:00N 50°07' W 125°03'2 4.9
2018-Jul-11 20:30N 50°06' W 125°07'4 7.2
2018-Jul-11 20:00N 50°06' W 125°13'1 2.1
2018-Jul-11 19:30N 50°07' W 125°11'510.2
2018-Jul-11 19:00N 50°07' W 125°03'2 3.6
2018-Jul-11 18:30N 50°06' W 125°06'4 8.4
2018-Jul-11 18:00N 50°06' W 125°13'0 0.5
2018-Jul-11 17:30N 50°06' W 125°13'611.0
2018-Jul-11 17:00N 50°06' W 125°04'1 2.4
2018-Jul-11 16:30N 50°06' W 125°06'4 8.6
2018-Jul-11 16:00N 50°06' W 125°13'0 0.1
2018-Jul-11 15:30N 50°06' W 125°13'510.0
2018-Jul-11 15:00N 50°06' W 125°05'1 2.3
2018-Jul-11 14:30N 50°07' W 125°03'0 0.0
2018-Jul-11 13:58N 50°07' W 125°03'0 0.0
2018-Jul-11 13:28N 50°07' W 125°03'0 0.0
2018-Jul-11 12:55N 50°07' W 125°03'0 0.0
2018-Jul-11 12:28N 50°07' W 125°03'0 0.0
2018-Jul-11 11:58N 50°07' W 125°03'0 0.0
2018-Jul-11 11:28N 50°07' W 125°03'0 0.0
2018-Jul-11 10:58N 50°07' W 125°03'0 0.0
2018-Jul-11 10:28N 50°07' W 125°03'0 0.0
2018-Jul-11 09:55N 50°07' W 125°03'0 0.0
2018-Jul-11 09:28N 50°07' W 125°03'0 0.0
2018-Jul-11 08:58N 50°07' W 125°03'0 0.0
2018-Jul-11 08:28N 50°07' W 125°03'0 0.0
2018-Jul-11 07:58N 50°07' W 125°03'0 0.0
2018-Jul-11 07:28N 50°07' W 125°03'0 0.0
2018-Jul-11 06:58N 50°07' W 125°03'0 0.0
2018-Jul-11 06:28N 50°07' W 125°03'0 0.0
2018-Jul-11 05:58N 50°07' W 125°03'0 0.0
2018-Jul-11 05:28N 50°07' W 125°03'0 0.0
2018-Jul-11 04:58N 50°07' W 125°03'0 0.0
2018-Jul-11 04:28N 50°07' W 125°03'0 0.0
2018-Jul-11 03:58N 50°07' W 125°03'0 0.0
2018-Jul-11 03:25N 50°07' W 125°03'0 0.0
2018-Jul-11 02:58N 50°07' W 125°03'0 0.0
2018-Jul-11 02:28N 50°07' W 125°03'3 7.6
2018-Jul-11 02:00N 50°07' W 125°09'3 5.2
2018-Jul-11 01:30N 50°06' W 125°13'510.5
2018-Jul-11 01:00N 50°06' W 125°05'1 1.6
2018-Jul-11 00:30N 50°06' W 125°06'4 8.9
2018-Jul-11 00:00N 50°06' W 125°13'2 3.5
2018-Jul-10 23:30N 50°07' W 125°10'4 8.7
2018-Jul-10 23:00N 50°07' W 125°03'2 4.1
2018-Jul-10 22:30N 50°06' W 125°06'4 8.0
2018-Jul-10 22:00N 50°06' W 125°13'1 1.5
2018-Jul-10 21:30N 50°07' W 125°12'510.8
2018-Jul-10 21:00N 50°07' W 125°03'3 5.2
2018-Jul-10 20:30N 50°06' W 125°07'3 6.9
2018-Jul-10 20:00N 50°06' W 125°13'1 2.2
2018-Jul-10 19:30N 50°07' W 125°11'510.0
2018-Jul-10 19:00N 50°07' W 125°03'1 1.8
2018-Jul-10 18:30N 50°06' W 125°05'510.5
2018-Jul-10 18:00N 50°06' W 125°13'3 5.2
2018-Jul-10 17:30N 50°06' W 125°09'3 6.9
2018-Jul-10 17:00N 50°07' W 125°03'3 4.9
2018-Jul-10 16:30N 50°07' W 125°07'4 7.2
2018-Jul-10 16:00N 50°06' W 125°13'0 0.2
2018-Jul-10 15:30N 50°06' W 125°13'510.9
2018-Jul-10 15:00N 50°06' W 125°04'1 1.2
2018-Jul-10 14:30N 50°07' W 125°03'0 0.0
2018-Jul-10 14:00N 50°07' W 125°03'0 0.0
2018-Jul-10 13:30N 50°07' W 125°03'0 0.0
2018-Jul-10 13:00N 50°07' W 125°03'0 0.0
2018-Jul-10 12:30N 50°07' W 125°03'0 0.0
2018-Jul-10 12:00N 50°07' W 125°03'0 0.0
2018-Jul-10 11:30N 50°07' W 125°03'0 0.0
2018-Jul-10 11:00N 50°07' W 125°03'0 0.0
2018-Jul-10 10:30N 50°07' W 125°03'0 0.0
2018-Jul-10 10:00N 50°07' W 125°03'0 0.0
2018-Jul-10 09:30N 50°07' W 125°03'0 0.0
2018-Jul-10 09:00N 50°07' W 125°03'0 0.0
2018-Jul-10 08:30N 50°07' W 125°03'0 0.0
2018-Jul-10 08:00N 50°07' W 125°03'0 0.0
2018-Jul-10 07:30N 50°07' W 125°03'0 0.0
2018-Jul-10 07:00N 50°07' W 125°03'0 0.0
2018-Jul-10 06:30N 50°07' W 125°03'0 0.0
2018-Jul-10 06:00N 50°07' W 125°03'0 0.0
2018-Jul-10 05:30N 50°07' W 125°03'0 0.0
2018-Jul-10 05:00N 50°07' W 125°03'0 0.0
2018-Jul-10 04:30N 50°07' W 125°03'0 0.0
2018-Jul-10 04:00N 50°07' W 125°03'0 0.0
2018-Jul-10 03:30N 50°07' W 125°03'0 0.0
2018-Jul-10 03:00N 50°07' W 125°03'0 0.0
2018-Jul-10 02:30N 50°07' W 125°03'4 7.6
2018-Jul-10 02:00N 50°07' W 125°09'2 4.4
2018-Jul-10 01:30N 50°06' W 125°13'611.5
2018-Jul-10 01:00N 50°06' W 125°04'2 3.6
2018-Jul-10 00:30N 50°07' W 125°06'4 8.0
2018-Jul-10 00:00N 50°06' W 125°13'0 0.5
2018-Jul-09 23:31N 50°06' W 125°12'611.5
2018-Jul-09 23:00N 50°06' W 125°03'2 3.9
2018-Jul-09 22:30N 50°06' W 125°07'4 7.9
2018-Jul-09 22:00N 50°06' W 125°13'2 3.7
2018-Jul-09 21:30N 50°07' W 125°10'4 8.5
2018-Jul-09 21:00N 50°07' W 125°03'4 7.3
2018-Jul-09 20:30N 50°07' W 125°09'2 4.8
2018-Jul-09 20:00N 50°06' W 125°13'1 1.9
2018-Jul-09 19:30N 50°07' W 125°11'510.5
2018-Jul-09 19:00N 50°07' W 125°03'2 4.5
2018-Jul-09 18:30N 50°06' W 125°07'4 7.6
2018-Jul-09 18:00N 50°06' W 125°13'1 1.7
2018-Jul-09 17:30N 50°07' W 125°12'510.6
2018-Jul-09 17:00N 50°07' W 125°03'2 4.7
2018-Jul-09 16:30N 50°06' W 125°07'4 7.4
2018-Jul-09 16:00N 50°06' W 125°13'0 0.0
2018-Jul-09 15:31N 50°06' W 125°13'510.6
2018-Jul-09 15:00N 50°06' W 125°04'1 1.5
2018-Jul-09 14:30N 50°07' W 125°03'0 0.0
2018-Jul-09 14:00N 50°07' W 125°03'0 0.0
2018-Jul-09 13:30N 50°07' W 125°03'0 0.0
2018-Jul-09 13:00N 50°07' W 125°03'0 0.0
2018-Jul-09 12:30N 50°07' W 125°03'0 0.0
2018-Jul-09 12:00N 50°07' W 125°03'0 0.0
2018-Jul-09 11:30N 50°07' W 125°03'0 0.0
2018-Jul-09 11:00N 50°07' W 125°03'0 0.0
2018-Jul-09 10:30N 50°07' W 125°03'0 0.0
2018-Jul-09 10:00N 50°07' W 125°03'0 0.0
2018-Jul-09 09:30N 50°07' W 125°03'0 0.0
2018-Jul-09 09:00N 50°07' W 125°03'0 0.0
2018-Jul-09 08:30N 50°07' W 125°03'0 0.0
2018-Jul-09 08:00N 50°07' W 125°03'0 0.0
2018-Jul-09 07:30N 50°07' W 125°03'0 0.0
2018-Jul-09 07:00N 50°07' W 125°03'0 0.0
2018-Jul-09 06:30N 50°07' W 125°03'0 0.0
2018-Jul-09 06:00N 50°07' W 125°03'0 0.0
2018-Jul-09 05:30N 50°07' W 125°03'0 0.0
2018-Jul-09 05:00N 50°07' W 125°03'0 0.0
2018-Jul-09 04:30N 50°07' W 125°03'0 0.0
2018-Jul-09 04:00N 50°07' W 125°03'0 0.0
2018-Jul-09 03:30N 50°07' W 125°03'0 0.0
2018-Jul-09 03:00N 50°07' W 125°03'0 0.0
2018-Jul-09 02:30N 50°07' W 125°03'4 7.0
2018-Jul-09 02:00N 50°07' W 125°09'3 5.1
2018-Jul-09 01:30N 50°06' W 125°13'510.1
2018-Jul-09 01:00N 50°06' W 125°05'1 2.1
2018-Jul-09 00:30N 50°07' W 125°06'4 8.1
2018-Jul-09 00:00N 50°06' W 125°13'0 0.9
2018-Jul-08 23:30N 50°07' W 125°12'611.4
2018-Jul-08 23:00N 50°07' W 125°03'2 3.5
2018-Jul-08 22:30N 50°06' W 125°06'4 8.5
2018-Jul-08 22:00N 50°06' W 125°13'0 0.5
2018-Jul-08 21:30N 50°06' W 125°12'611.7
2018-Jul-08 21:01N 50°06' W 125°03'2 3.5
2018-Jul-08 20:30N 50°07' W 125°06'4 8.5
2018-Jul-08 20:00N 50°06' W 125°13'1 1.3
2018-Jul-08 19:31N 50°07' W 125°12'611.1
2018-Jul-08 19:00N 50°07' W 125°03'2 3.5
2018-Jul-08 18:30N 50°06' W 125°06'4 8.6
2018-Jul-08 18:00N 50°06' W 125°13'2 3.2
2018-Jul-08 17:30N 50°07' W 125°10'5 9.0
2018-Jul-08 17:00N 50°07' W 125°03'2 4.8
2018-Jul-08 16:30N 50°06' W 125°07'4 7.3
2018-Jul-08 16:00N 50°06' W 125°13'0 0.2
2018-Jul-08 15:30N 50°06' W 125°13'510.8
2018-Jul-08 15:00N 50°06' W 125°04'1 1.5
2018-Jul-08 14:30N 50°07' W 125°03'0 0.0
2018-Jul-08 14:00N 50°07' W 125°03'0 0.0
2018-Jul-08 13:30N 50°07' W 125°03'0 0.0
2018-Jul-08 13:00N 50°07' W 125°03'0 0.0
2018-Jul-08 12:30N 50°07' W 125°03'0 0.0
2018-Jul-08 12:00N 50°07' W 125°03'0 0.0
2018-Jul-08 11:30N 50°07' W 125°03'0 0.0
2018-Jul-08 11:00N 50°07' W 125°03'0 0.0
2018-Jul-08 10:30N 50°07' W 125°03'0 0.0
2018-Jul-08 10:00N 50°07' W 125°03'0 0.0
2018-Jul-08 09:30N 50°07' W 125°03'0 0.0
2018-Jul-08 09:00N 50°07' W 125°03'0 0.0
2018-Jul-08 08:30N 50°07' W 125°03'0 0.0
2018-Jul-08 08:00N 50°07' W 125°03'0 0.0
2018-Jul-08 07:30N 50°07' W 125°03'0 0.0
2018-Jul-08 07:00N 50°07' W 125°03'0 0.0
2018-Jul-08 06:30N 50°07' W 125°03'0 0.0
2018-Jul-08 06:00N 50°07' W 125°03'0 0.0
2018-Jul-08 05:30N 50°07' W 125°03'0 0.0
2018-Jul-08 05:00N 50°07' W 125°03'0 0.0
2018-Jul-08 04:30N 50°07' W 125°03'0 0.0
2018-Jul-08 04:00N 50°07' W 125°03'0 0.0
2018-Jul-08 03:30N 50°07' W 125°03'0 0.0
2018-Jul-08 03:00N 50°07' W 125°03'0 0.0
2018-Jul-08 02:30N 50°07' W 125°03'4 7.4
2018-Jul-08 02:00N 50°07' W 125°09'2 4.7
2018-Jul-08 01:30N 50°06' W 125°13'5 9.4
2018-Jul-08 01:00N 50°06' W 125°05'0 0.7
2018-Jul-08 00:30N 50°06' W 125°06'4 8.7
2018-Jul-08 00:00N 50°06' W 125°13'0 0.1
2018-Jul-07 23:30N 50°06' W 125°13'510.9
2018-Jul-07 23:00N 50°06' W 125°04'2 3.6
2018-Jul-07 22:30N 50°06' W 125°07'4 7.2
2018-Jul-07 22:00N 50°06' W 125°13'0 0.9
2018-Jul-07 21:30N 50°07' W 125°12'611.5
2018-Jul-07 21:00N 50°06' W 125°03'3 5.6
2018-Jul-07 20:30N 50°06' W 125°08'3 6.4
2018-Jul-07 20:00N 50°06' W 125°13'0 0.9
2018-Jul-07 19:30N 50°07' W 125°12'611.6
2018-Jul-07 19:00N 50°06' W 125°03'2 4.1
2018-Jul-07 18:30N 50°07' W 125°06'4 8.1
2018-Jul-07 18:00N 50°06' W 125°13'1 1.6
2018-Jul-07 17:31N 50°07' W 125°12'510.8
2018-Jul-07 17:00N 50°07' W 125°03'2 4.3
2018-Jul-07 16:30N 50°07' W 125°07'4 7.8
2018-Jul-07 16:00N 50°06' W 125°13'0 0.0
2018-Jul-07 15:30N 50°06' W 125°13'5 9.8
2018-Jul-07 15:00N 50°06' W 125°05'1 2.3
2018-Jul-07 14:30N 50°07' W 125°03'0 0.0
2018-Jul-07 14:00N 50°07' W 125°03'0 0.0
2018-Jul-07 13:30N 50°07' W 125°03'0 0.0
2018-Jul-07 13:00N 50°07' W 125°03'0 0.0
2018-Jul-07 12:30N 50°07' W 125°03'0 0.0
2018-Jul-07 12:00N 50°07' W 125°03'0 0.0
2018-Jul-07 11:30N 50°07' W 125°03'0 0.0
2018-Jul-07 11:00N 50°07' W 125°03'0 0.0
2018-Jul-07 10:30N 50°07' W 125°03'0 0.0
2018-Jul-07 10:00N 50°07' W 125°03'0 0.0
2018-Jul-07 09:30N 50°07' W 125°03'0 0.0
2018-Jul-07 09:00N 50°07' W 125°03'0 0.0
2018-Jul-07 08:30N 50°07' W 125°03'0 0.0
2018-Jul-07 08:00N 50°07' W 125°03'0 0.0
2018-Jul-07 07:30N 50°07' W 125°03'0 0.0
2018-Jul-07 07:00N 50°07' W 125°03'0 0.0
2018-Jul-07 06:30N 50°07' W 125°03'0 0.0
2018-Jul-07 06:00N 50°07' W 125°03'0 0.0
2018-Jul-07 05:30N 50°07' W 125°03'0 0.0
2018-Jul-07 05:00N 50°07' W 125°03'0 0.0
2018-Jul-07 04:30N 50°07' W 125°03'0 0.0
2018-Jul-07 04:00N 50°07' W 125°03'0 0.0
2018-Jul-07 03:30N 50°07' W 125°03'0 0.0
2018-Jul-07 03:00N 50°07' W 125°03'0 0.0
2018-Jul-07 02:30N 50°07' W 125°03'510.2
2018-Jul-07 02:00N 50°07' W 125°11'0 0.8
2018-Jul-07 01:30N 50°07' W 125°12'510.9
2018-Jul-07 01:00N 50°07' W 125°03'3 5.5
2018-Jul-07 00:30N 50°06' W 125°08'3 6.6
2018-Jul-07 00:00N 50°06' W 125°13'0 0.6
2018-Jul-06 23:30N 50°06' W 125°12'611.9
2018-Jul-06 23:01N 50°07' W 125°03'2 4.4
2018-Jul-06 22:30N 50°06' W 125°07'4 7.7
2018-Jul-06 22:00N 50°06' W 125°13'1 2.4
2018-Jul-06 21:30N 50°07' W 125°11'5 9.9
2018-Jul-06 21:00N 50°07' W 125°03'3 6.4
2018-Jul-06 20:30N 50°06' W 125°08'3 5.6
2018-Jul-06 20:00N 50°06' W 125°13'1 2.2
2018-Jul-06 19:30N 50°07' W 125°11'510.2
2018-Jul-06 19:00N 50°07' W 125°03'3 6.2
2018-Jul-06 18:30N 50°07' W 125°08'3 6.0
2018-Jul-06 18:00N 50°06' W 125°13'  
Track history (hours):
 
Tides and Currents Weather Stations Pressure Air Temp Water Temp Dewpoint Dewpoint Depression Visibility Wind Speed Wind Dir Waves Ship Positions

Quadra Queen II

Last reported at 2018-Jul-16 17:30 UTC. Time now 2018-Jul-16 17:38 UTC.
Position N 50°07' W 125°10'.

Length 50 m; draft 2.8 m.

Type: Ship. MMSI: 316001244.

Date/timePositionNaut miles runAvg speedWind from/ knotsBaromVisibWave heightAir tempDewpointWater temp
2018-Jul-16 17:30N 50°07' W 125°10'4 8.2
2018-Jul-16 17:00N 50°07' W 125°03'3 6.0
2018-Jul-16 16:30N 50°06' W 125°08'3 6.1
2018-Jul-16 16:00N 50°06' W 125°13'0 0.2
2018-Jul-16 15:30N 50°06' W 125°13'510.6
2018-Jul-16 15:00N 50°06' W 125°04'1 1.5
2018-Jul-16 14:30N 50°07' W 125°03'0 0.0
2018-Jul-16 13:55N 50°07' W 125°03'0 0.0
2018-Jul-16 13:28N 50°07' W 125°03'0 0.0
2018-Jul-16 12:55N 50°07' W 125°03'0 0.0
2018-Jul-16 12:25N 50°07' W 125°03'0 0.0
2018-Jul-16 11:58N 50°07' W 125°03'0 0.0
2018-Jul-16 11:28N 50°07' W 125°03'0 0.0
2018-Jul-16 10:58N 50°07' W 125°03'0 0.0
2018-Jul-16 10:28N 50°07' W 125°03'0 0.0
2018-Jul-16 09:58N 50°07' W 125°03'0 0.0
2018-Jul-16 09:28N 50°07' W 125°03'0 0.0
2018-Jul-16 08:58N 50°07' W 125°03'0 0.0
2018-Jul-16 08:28N 50°07' W 125°03'0 0.0
2018-Jul-16 07:58N 50°07' W 125°03'0 0.0
2018-Jul-16 07:28N 50°07' W 125°03'0 0.0
2018-Jul-16 06:58N 50°07' W 125°03'0 0.0
2018-Jul-16 06:28N 50°07' W 125°03'0 0.0
2018-Jul-16 05:55N 50°07' W 125°03'0 0.0
2018-Jul-16 05:28N 50°07' W 125°03'0 0.0
2018-Jul-16 04:58N 50°07' W 125°03'0 0.0
2018-Jul-16 04:28N 50°07' W 125°03'0 0.0
2018-Jul-16 03:58N 50°07' W 125°03'0 0.0
2018-Jul-16 03:28N 50°07' W 125°03'0 0.0
2018-Jul-16 02:58N 50°07' W 125°03'0 0.0
2018-Jul-16 02:28N 50°07' W 125°03'3 7.4
2018-Jul-16 02:01N 50°06' W 125°09'3 5.3
2018-Jul-16 01:30N 50°06' W 125°13'5 9.8
2018-Jul-16 01:00N 50°06' W 125°05'1 1.1
2018-Jul-16 00:30N 50°06' W 125°06'4 8.6
2018-Jul-16 00:00N 50°06' W 125°13'0 0.1
2018-Jul-15 23:31N 50°06' W 125°13'510.9
2018-Jul-15 23:00N 50°06' W 125°04'2 3.6
2018-Jul-15 22:30N 50°06' W 125°07'4 6.4
2018-Jul-15 21:56N 50°06' W 125°13'1 1.6
2018-Jul-15 21:30N 50°07' W 125°12'611.0
2018-Jul-15 21:00N 50°07' W 125°03'2 4.4
2018-Jul-15 20:30N 50°06' W 125°07'4 7.6
2018-Jul-15 20:01N 50°06' W 125°13'0 0.9
2018-Jul-15 19:30N 50°07' W 125°12'611.4
2018-Jul-15 19:00N 50°06' W 125°03'2 4.3
2018-Jul-15 18:30N 50°06' W 125°07'4 7.7
2018-Jul-15 18:01N 50°06' W 125°13'0 0.0
2018-Jul-15 17:30N 50°06' W 125°13'510.2
2018-Jul-15 17:00N 50°06' W 125°05'1 1.2
2018-Jul-15 16:31N 50°06' W 125°06'4 8.9
2018-Jul-15 16:00N 50°06' W 125°13'0 0.0
2018-Jul-15 15:30N 50°06' W 125°13'5 9.4
2018-Jul-15 15:00N 50°06' W 125°05'1 2.8
2018-Jul-15 14:31N 50°07' W 125°03'0 0.0
2018-Jul-15 13:58N 50°07' W 125°03'0 0.0
2018-Jul-15 13:28N 50°07' W 125°03'0 0.0
2018-Jul-15 12:55N 50°07' W 125°03'0 0.0
2018-Jul-15 12:28N 50°07' W 125°03'0 0.0
2018-Jul-15 11:58N 50°07' W 125°03'0 0.0
2018-Jul-15 11:28N 50°07' W 125°03'0 0.0
2018-Jul-15 10:58N 50°07' W 125°03'0 0.0
2018-Jul-15 10:28N 50°07' W 125°03'0 0.0
2018-Jul-15 09:58N 50°07' W 125°03'0 0.0
2018-Jul-15 09:28N 50°07' W 125°03'0 0.0
2018-Jul-15 08:58N 50°07' W 125°03'0 0.0
2018-Jul-15 08:28N 50°07' W 125°03'0 0.0
2018-Jul-15 07:58N 50°07' W 125°03'0 0.0
2018-Jul-15 07:28N 50°07' W 125°03'0 0.0
2018-Jul-15 06:58N 50°07' W 125°03'0 0.0
2018-Jul-15 06:28N 50°07' W 125°03'0 0.0
2018-Jul-15 05:58N 50°07' W 125°03'0 0.0
2018-Jul-15 05:28N 50°07' W 125°03'0 0.0
2018-Jul-15 04:55N 50°07' W 125°03'0 0.0
2018-Jul-15 04:25N 50°07' W 125°03'0 0.0
2018-Jul-15 03:58N 50°07' W 125°03'0 0.0
2018-Jul-15 03:28N 50°07' W 125°03'0 0.0
2018-Jul-15 02:58N 50°07' W 125°03'0 0.0
2018-Jul-15 02:28N 50°07' W 125°03'3 7.1
2018-Jul-15 02:01N 50°07' W 125°08'3 5.6
2018-Jul-15 01:30N 50°06' W 125°13'5 9.9
2018-Jul-15 01:00N 50°06' W 125°05'0 0.9
2018-Jul-15 00:30N 50°06' W 125°06'5 8.7
2018-Jul-15 00:00N 50°06' W 125°13'0 0.0
2018-Jul-14 23:30N 50°06' W 125°13'5 9.7
2018-Jul-14 23:00N 50°06' W 125°05'0 0.5
2018-Jul-14 22:31N 50°06' W 125°06'5 8.9
2018-Jul-14 22:00N 50°06' W 125°13'0 0.1
2018-Jul-14 21:31N 50°06' W 125°13'611.1
2018-Jul-14 21:01N 50°06' W 125°04'2 3.5
2018-Jul-14 20:30N 50°06' W 125°07'4 7.5
2018-Jul-14 20:00N 50°06' W 125°13'0 0.5
2018-Jul-14 19:30N 50°06' W 125°13'611.3
2018-Jul-14 19:00N 50°06' W 125°04'2 3.5
2018-Jul-14 18:31N 50°06' W 125°06'4 7.9
2018-Jul-14 18:01N 50°06' W 125°13'0 0.1
2018-Jul-14 17:30N 50°06' W 125°13'510.2
2018-Jul-14 17:00N 50°06' W 125°05'0 0.8
2018-Jul-14 16:31N 50°06' W 125°05'5 9.4
2018-Jul-14 16:00N 50°06' W 125°13'0 0.0
2018-Jul-14 15:30N 50°06' W 125°13'5 9.3
2018-Jul-14 15:00N 50°06' W 125°05'1 2.4
2018-Jul-14 14:25N 50°07' W 125°03'0 0.0
2018-Jul-14 13:25N 50°07' W 125°03'0 0.0
2018-Jul-14 12:55N 50°07' W 125°03'0 0.0
2018-Jul-14 12:25N 50°07' W 125°03'0 0.0
2018-Jul-14 11:55N 50°07' W 125°03'0 0.0
2018-Jul-14 11:25N 50°07' W 125°03'0 0.0
2018-Jul-14 10:55N 50°07' W 125°03'0 0.0
2018-Jul-14 10:25N 50°07' W 125°03'0 0.0
2018-Jul-14 09:55N 50°07' W 125°03'0 0.0
2018-Jul-14 09:25N 50°07' W 125°03'0 0.0
2018-Jul-14 08:55N 50°07' W 125°03'0 0.0
2018-Jul-14 08:25N 50°07' W 125°03'0 0.0
2018-Jul-14 07:55N 50°07' W 125°03'0 0.0
2018-Jul-14 07:25N 50°07' W 125°03'0 0.0
2018-Jul-14 06:55N 50°07' W 125°03'0 0.0
2018-Jul-14 06:25N 50°07' W 125°03'0 0.0
2018-Jul-14 05:55N 50°07' W 125°03'0 0.0
2018-Jul-14 05:25N 50°07' W 125°03'0 0.0
2018-Jul-14 04:55N 50°07' W 125°03'0 0.0
2018-Jul-14 04:25N 50°07' W 125°03'0 0.0
2018-Jul-14 03:55N 50°07' W 125°03'0 0.0
2018-Jul-14 03:25N 50°07' W 125°03'0 0.0
2018-Jul-14 02:55N 50°07' W 125°03'2 6.0
2018-Jul-14 02:30N 50°06' W 125°07'4 7.2
2018-Jul-14 02:00N 50°06' W 125°13'1 1.7
2018-Jul-14 01:30N 50°07' W 125°12'510.6
2018-Jul-14 01:00N 50°07' W 125°03'3 5.3
2018-Jul-14 00:30N 50°06' W 125°07'3 6.9
2018-Jul-14 00:00N 50°06' W 125°13'0 0.0
2018-Jul-13 23:30N 50°06' W 125°13'510.3
2018-Jul-13 23:00N 50°06' W 125°05'1 1.6
2018-Jul-13 22:30N 50°06' W 125°06'4 8.8
2018-Jul-13 22:00N 50°06' W 125°13'3 5.8
2018-Jul-13 21:30N 50°06' W 125°08'3 6.4
2018-Jul-13 21:00N 50°07' W 125°03'3 6.1
2018-Jul-13 20:30N 50°06' W 125°08'3 6.0
2018-Jul-13 20:00N 50°06' W 125°13'3 6.1
2018-Jul-13 19:30N 50°06' W 125°08'3 6.0
2018-Jul-13 19:00N 50°07' W 125°03'4 7.4
2018-Jul-13 18:30N 50°06' W 125°09'2 4.6
2018-Jul-13 17:59N 50°06' W 125°13'3 7.1
2018-Jul-13 17:30N 50°06' W 125°07'3 5.3
2018-Jul-13 17:00N 50°07' W 125°03'3 5.9
2018-Jul-13 16:30N 50°06' W 125°08'3 6.2
2018-Jul-13 16:00N 50°06' W 125°13'0 0.2
2018-Jul-13 15:30N 50°06' W 125°13'510.6
2018-Jul-13 15:00N 50°06' W 125°04'1 1.5
2018-Jul-13 14:30N 50°07' W 125°03'0 0.0
2018-Jul-13 13:28N 50°07' W 125°03'0 0.0
2018-Jul-13 12:55N 50°07' W 125°03'0 0.0
2018-Jul-13 12:28N 50°07' W 125°03'0 0.0
2018-Jul-13 11:58N 50°07' W 125°03'0 0.0
2018-Jul-13 11:28N 50°07' W 125°03'0 0.0
2018-Jul-13 10:55N 50°07' W 125°03'0 0.0
2018-Jul-13 10:28N 50°07' W 125°03'0 0.0
2018-Jul-13 09:58N 50°07' W 125°03'0 0.0
2018-Jul-13 09:28N 50°07' W 125°03'0 0.0
2018-Jul-13 08:58N 50°07' W 125°03'0 0.0
2018-Jul-13 08:28N 50°07' W 125°03'0 0.0
2018-Jul-13 07:55N 50°07' W 125°03'0 0.0
2018-Jul-13 07:25N 50°07' W 125°03'0 0.0
2018-Jul-13 06:58N 50°07' W 125°03'0 0.0
2018-Jul-13 06:25N 50°07' W 125°03'0 0.0
2018-Jul-13 05:55N 50°07' W 125°03'0 0.0
2018-Jul-13 05:28N 50°07' W 125°03'0 0.0
2018-Jul-13 04:58N 50°07' W 125°03'0 0.0
2018-Jul-13 04:28N 50°07' W 125°03'0 0.0
2018-Jul-13 03:55N 50°07' W 125°03'0 0.0
2018-Jul-13 03:25N 50°07' W 125°03'0 0.0
2018-Jul-13 02:58N 50°07' W 125°03'2 4.3
2018-Jul-13 02:30N 50°06' W 125°06'4 8.2
2018-Jul-13 02:00N 50°06' W 125°13'2 5.0
2018-Jul-13 01:30N 50°06' W 125°09'4 7.2
2018-Jul-13 01:00N 50°07' W 125°03'3 5.5
2018-Jul-13 00:30N 50°06' W 125°08'3 6.6
2018-Jul-13 00:00N 50°06' W 125°13'1 2.4
2018-Jul-12 23:30N 50°07' W 125°11'5 9.8
2018-Jul-12 23:00N 50°07' W 125°03'2 3.7
2018-Jul-12 22:30N 50°06' W 125°06'4 8.4
2018-Jul-12 22:00N 50°06' W 125°13'2 4.5
2018-Jul-12 21:30N 50°06' W 125°09'4 7.6
2018-Jul-12 21:00N 50°07' W 125°03'3 6.5
2018-Jul-12 20:30N 50°07' W 125°08'3 5.7
2018-Jul-12 20:00N 50°06' W 125°13'510.8
2018-Jul-12 19:30N 50°06' W 125°04'0 0.1
2018-Jul-12 19:00N 50°06' W 125°04'510.7
2018-Jul-12 18:30N 50°06' W 125°13'0 0.0
2018-Jul-12 18:00N 50°06' W 125°13'1 2.8
2018-Jul-12 17:30N 50°06' W 125°11'5 9.4
2018-Jul-12 17:00N 50°07' W 125°03'2 4.8
2018-Jul-12 16:30N 50°06' W 125°07'4 7.4
2018-Jul-12 16:00N 50°06' W 125°13'2 4.4
2018-Jul-12 15:30N 50°06' W 125°09'4 7.7
2018-Jul-12 15:00N 50°07' W 125°03'0 0.0
2018-Jul-12 14:30N 50°07' W 125°03'0 0.0
2018-Jul-12 13:58N 50°07' W 125°03'0 0.0
2018-Jul-12 13:28N 50°07' W 125°03'0 0.0
2018-Jul-12 12:58N 50°07' W 125°03'0 0.0
2018-Jul-12 12:28N 50°07' W 125°03'0 0.0
2018-Jul-12 11:58N 50°07' W 125°03'0 0.0
2018-Jul-12 11:28N 50°07' W 125°03'0 0.0
2018-Jul-12 10:58N 50°07' W 125°03'0 0.0
2018-Jul-12 10:28N 50°07' W 125°03'0 0.0
2018-Jul-12 09:58N 50°07' W 125°03'0 0.0
2018-Jul-12 09:28N 50°07' W 125°03'0 0.0
2018-Jul-12 08:58N 50°07' W 125°03'0 0.0
2018-Jul-12 08:28N 50°07' W 125°03'0 0.0
2018-Jul-12 07:58N 50°07' W 125°03'0 0.0
2018-Jul-12 07:28N 50°07' W 125°03'0 0.0
2018-Jul-12 06:58N 50°07' W 125°03'0 0.0
2018-Jul-12 06:28N 50°07' W 125°03'0 0.0
2018-Jul-12 05:58N 50°07' W 125°03'0 0.0
2018-Jul-12 05:28N 50°07' W 125°03'0 0.0
2018-Jul-12 04:58N 50°07' W 125°03'0 0.0
2018-Jul-12 04:28N 50°07' W 125°03'0 0.0
2018-Jul-12 03:58N 50°07' W 125°03'0 0.0
2018-Jul-12 03:25N 50°07' W 125°03'0 0.0
2018-Jul-12 02:58N 50°07' W 125°03'0 0.0
2018-Jul-12 02:28N 50°07' W 125°03'3 7.4
2018-Jul-12 02:00N 50°06' W 125°09'3 5.4
2018-Jul-12 01:30N 50°06' W 125°13'510.1
2018-Jul-12 01:00N 50°06' W 125°05'0 0.8
2018-Jul-12 00:30N 50°06' W 125°05'5 9.5
2018-Jul-12 00:00N 50°06' W 125°13'2 3.8
2018-Jul-11 23:30N 50°07' W 125°10'4 8.4
2018-Jul-11 23:00N 50°07' W 125°03'3 5.4
2018-Jul-11 22:30N 50°06' W 125°08'3 6.7
2018-Jul-11 22:00N 50°06' W 125°13'1 1.7
2018-Jul-11 21:30N 50°07' W 125°12'510.6
2018-Jul-11 21:00N 50°07' W 125°03'2 4.9
2018-Jul-11 20:30N 50°06' W 125°07'4 7.2
2018-Jul-11 20:00N 50°06' W 125°13'1 2.1
2018-Jul-11 19:30N 50°07' W 125°11'510.2
2018-Jul-11 19:00N 50°07' W 125°03'2 3.6
2018-Jul-11 18:30N 50°06' W 125°06'4 8.4
2018-Jul-11 18:00N 50°06' W 125°13'0 0.5
2018-Jul-11 17:30N 50°06' W 125°13'611.0
2018-Jul-11 17:00N 50°06' W 125°04'1 2.4
2018-Jul-11 16:30N 50°06' W 125°06'4 8.6
2018-Jul-11 16:00N 50°06' W 125°13'0 0.1
2018-Jul-11 15:30N 50°06' W 125°13'510.0
2018-Jul-11 15:00N 50°06' W 125°05'1 2.3
2018-Jul-11 14:30N 50°07' W 125°03'0 0.0
2018-Jul-11 13:58N 50°07' W 125°03'0 0.0
2018-Jul-11 13:28N 50°07' W 125°03'0 0.0
2018-Jul-11 12:55N 50°07' W 125°03'0 0.0
2018-Jul-11 12:28N 50°07' W 125°03'0 0.0
2018-Jul-11 11:58N 50°07' W 125°03'0 0.0
2018-Jul-11 11:28N 50°07' W 125°03'0 0.0
2018-Jul-11 10:58N 50°07' W 125°03'0 0.0
2018-Jul-11 10:28N 50°07' W 125°03'0 0.0
2018-Jul-11 09:55N 50°07' W 125°03'0 0.0
2018-Jul-11 09:28N 50°07' W 125°03'0 0.0
2018-Jul-11 08:58N 50°07' W 125°03'0 0.0
2018-Jul-11 08:28N 50°07' W 125°03'0 0.0
2018-Jul-11 07:58N 50°07' W 125°03'0 0.0
2018-Jul-11 07:28N 50°07' W 125°03'0 0.0
2018-Jul-11 06:58N 50°07' W 125°03'0 0.0
2018-Jul-11 06:28N 50°07' W 125°03'0 0.0
2018-Jul-11 05:58N 50°07' W 125°03'0 0.0
2018-Jul-11 05:28N 50°07' W 125°03'0 0.0
2018-Jul-11 04:58N 50°07' W 125°03'0 0.0
2018-Jul-11 04:28N 50°07' W 125°03'0 0.0
2018-Jul-11 03:58N 50°07' W 125°03'0 0.0
2018-Jul-11 03:25N 50°07' W 125°03'0 0.0
2018-Jul-11 02:58N 50°07' W 125°03'0 0.0
2018-Jul-11 02:28N 50°07' W 125°03'3 7.6
2018-Jul-11 02:00N 50°07' W 125°09'3 5.2
2018-Jul-11 01:30N 50°06' W 125°13'510.5
2018-Jul-11 01:00N 50°06' W 125°05'1 1.6
2018-Jul-11 00:30N 50°06' W 125°06'4 8.9
2018-Jul-11 00:00N 50°06' W 125°13'2 3.5
2018-Jul-10 23:30N 50°07' W 125°10'4 8.7
2018-Jul-10 23:00N 50°07' W 125°03'2 4.1
2018-Jul-10 22:30N 50°06' W 125°06'4 8.0
2018-Jul-10 22:00N 50°06' W 125°13'1 1.5
2018-Jul-10 21:30N 50°07' W 125°12'510.8
2018-Jul-10 21:00N 50°07' W 125°03'3 5.2
2018-Jul-10 20:30N 50°06' W 125°07'3 6.9
2018-Jul-10 20:00N 50°06' W 125°13'1 2.2
2018-Jul-10 19:30N 50°07' W 125°11'510.0
2018-Jul-10 19:00N 50°07' W 125°03'1 1.8
2018-Jul-10 18:30N 50°06' W 125°05'510.5
2018-Jul-10 18:00N 50°06' W 125°13'3 5.2
2018-Jul-10 17:30N 50°06' W 125°09'3 6.9
2018-Jul-10 17:00N 50°07' W 125°03'3 4.9
2018-Jul-10 16:30N 50°07' W 125°07'4 7.2
2018-Jul-10 16:00N 50°06' W 125°13'0 0.2
2018-Jul-10 15:30N 50°06' W 125°13'510.9
2018-Jul-10 15:00N 50°06' W 125°04'1 1.2
2018-Jul-10 14:30N 50°07' W 125°03'0 0.0
2018-Jul-10 14:00N 50°07' W 125°03'0 0.0
2018-Jul-10 13:30N 50°07' W 125°03'0 0.0
2018-Jul-10 13:00N 50°07' W 125°03'0 0.0
2018-Jul-10 12:30N 50°07' W 125°03'0 0.0
2018-Jul-10 12:00N 50°07' W 125°03'0 0.0
2018-Jul-10 11:30N 50°07' W 125°03'0 0.0
2018-Jul-10 11:00N 50°07' W 125°03'0 0.0
2018-Jul-10 10:30N 50°07' W 125°03'0 0.0
2018-Jul-10 10:00N 50°07' W 125°03'0 0.0
2018-Jul-10 09:30N 50°07' W 125°03'0 0.0
2018-Jul-10 09:00N 50°07' W 125°03'0 0.0
2018-Jul-10 08:30N 50°07' W 125°03'0 0.0
2018-Jul-10 08:00N 50°07' W 125°03'0 0.0
2018-Jul-10 07:30N 50°07' W 125°03'0 0.0
2018-Jul-10 07:00N 50°07' W 125°03'0 0.0
2018-Jul-10 06:30N 50°07' W 125°03'0 0.0
2018-Jul-10 06:00N 50°07' W 125°03'0 0.0
2018-Jul-10 05:30N 50°07' W 125°03'0 0.0
2018-Jul-10 05:00N 50°07' W 125°03'0 0.0
2018-Jul-10 04:30N 50°07' W 125°03'0 0.0
2018-Jul-10 04:00N 50°07' W 125°03'0 0.0
2018-Jul-10 03:30N 50°07' W 125°03'0 0.0
2018-Jul-10 03:00N 50°07' W 125°03'0 0.0
2018-Jul-10 02:30N 50°07' W 125°03'4 7.6
2018-Jul-10 02:00N 50°07' W 125°09'2 4.4
2018-Jul-10 01:30N 50°06' W 125°13'611.5
2018-Jul-10 01:00N 50°06' W 125°04'2 3.6
2018-Jul-10 00:30N 50°07' W 125°06'4 8.0
2018-Jul-10 00:00N 50°06' W 125°13'0 0.5
2018-Jul-09 23:31N 50°06' W 125°12'611.5
2018-Jul-09 23:00N 50°06' W 125°03'2 3.9
2018-Jul-09 22:30N 50°06' W 125°07'4 7.9
2018-Jul-09 22:00N 50°06' W 125°13'2 3.7
2018-Jul-09 21:30N 50°07' W 125°10'4 8.5
2018-Jul-09 21:00N 50°07' W 125°03'4 7.3
2018-Jul-09 20:30N 50°07' W 125°09'2 4.8
2018-Jul-09 20:00N 50°06' W 125°13'1 1.9
2018-Jul-09 19:30N 50°07' W 125°11'510.5
2018-Jul-09 19:00N 50°07' W 125°03'2 4.5
2018-Jul-09 18:30N 50°06' W 125°07'4 7.6
2018-Jul-09 18:00N 50°06' W 125°13'1 1.7
2018-Jul-09 17:30N 50°07' W 125°12'510.6
2018-Jul-09 17:00N 50°07' W 125°03'2 4.7
2018-Jul-09 16:30N 50°06' W 125°07'4 7.4
2018-Jul-09 16:00N 50°06' W 125°13'0 0.0
2018-Jul-09 15:31N 50°06' W 125°13'510.6
2018-Jul-09 15:00N 50°06' W 125°04'1 1.5
2018-Jul-09 14:30N 50°07' W 125°03'0 0.0
2018-Jul-09 14:00N 50°07' W 125°03'0 0.0
2018-Jul-09 13:30N 50°07' W 125°03'0 0.0
2018-Jul-09 13:00N 50°07' W 125°03'0 0.0
2018-Jul-09 12:30N 50°07' W 125°03'0 0.0
2018-Jul-09 12:00N 50°07' W 125°03'0 0.0
2018-Jul-09 11:30N 50°07' W 125°03'0 0.0
2018-Jul-09 11:00N 50°07' W 125°03'0 0.0
2018-Jul-09 10:30N 50°07' W 125°03'0 0.0
2018-Jul-09 10:00N 50°07' W 125°03'0 0.0
2018-Jul-09 09:30N 50°07' W 125°03'0 0.0
2018-Jul-09 09:00N 50°07' W 125°03'0 0.0
2018-Jul-09 08:30N 50°07' W 125°03'0 0.0
2018-Jul-09 08:00N 50°07' W 125°03'0 0.0
2018-Jul-09 07:30N 50°07' W 125°03'0 0.0
2018-Jul-09 07:00N 50°07' W 125°03'0 0.0
2018-Jul-09 06:30N 50°07' W 125°03'0 0.0
2018-Jul-09 06:00N 50°07' W 125°03'0 0.0
2018-Jul-09 05:30N 50°07' W 125°03'0 0.0
2018-Jul-09 05:00N 50°07' W 125°03'0 0.0
2018-Jul-09 04:30N 50°07' W 125°03'0 0.0
2018-Jul-09 04:00N 50°07' W 125°03'0 0.0
2018-Jul-09 03:30N 50°07' W 125°03'0 0.0
2018-Jul-09 03:00N 50°07' W 125°03'0 0.0
2018-Jul-09 02:30N 50°07' W 125°03'4 7.0
2018-Jul-09 02:00N 50°07' W 125°09'3 5.1
2018-Jul-09 01:30N 50°06' W 125°13'510.1
2018-Jul-09 01:00N 50°06' W 125°05'1 2.1
2018-Jul-09 00:30N 50°07' W 125°06'4 8.1
2018-Jul-09 00:00N 50°06' W 125°13'0 0.9
2018-Jul-08 23:30N 50°07' W 125°12'611.4
2018-Jul-08 23:00N 50°07' W 125°03'2 3.5
2018-Jul-08 22:30N 50°06' W 125°06'4 8.5
2018-Jul-08 22:00N 50°06' W 125°13'0 0.5
2018-Jul-08 21:30N 50°06' W 125°12'611.7
2018-Jul-08 21:01N 50°06' W 125°03'2 3.5
2018-Jul-08 20:30N 50°07' W 125°06'4 8.5
2018-Jul-08 20:00N 50°06' W 125°13'1 1.3
2018-Jul-08 19:31N 50°07' W 125°12'611.1
2018-Jul-08 19:00N 50°07' W 125°03'2 3.5
2018-Jul-08 18:30N 50°06' W 125°06'4 8.6
2018-Jul-08 18:00N 50°06' W 125°13'2 3.2
2018-Jul-08 17:30N 50°07' W 125°10'5 9.0
2018-Jul-08 17:00N 50°07' W 125°03'2 4.8
2018-Jul-08 16:30N 50°06' W 125°07'4 7.3
2018-Jul-08 16:00N 50°06' W 125°13'0 0.2
2018-Jul-08 15:30N 50°06' W 125°13'510.8
2018-Jul-08 15:00N 50°06' W 125°04'1 1.5
2018-Jul-08 14:30N 50°07' W 125°03'0 0.0
2018-Jul-08 14:00N 50°07' W 125°03'0 0.0
2018-Jul-08 13:30N 50°07' W 125°03'0 0.0
2018-Jul-08 13:00N 50°07' W 125°03'0 0.0
2018-Jul-08 12:30N 50°07' W 125°03'0 0.0
2018-Jul-08 12:00N 50°07' W 125°03'0 0.0
2018-Jul-08 11:30N 50°07' W 125°03'0 0.0
2018-Jul-08 11:00N 50°07' W 125°03'0 0.0
2018-Jul-08 10:30N 50°07' W 125°03'0 0.0
2018-Jul-08 10:00N 50°07' W 125°03'0 0.0
2018-Jul-08 09:30N 50°07' W 125°03'0 0.0
2018-Jul-08 09:00N 50°07' W 125°03'0 0.0
2018-Jul-08 08:30N 50°07' W 125°03'0 0.0
2018-Jul-08 08:00N 50°07' W 125°03'0 0.0
2018-Jul-08 07:30N 50°07' W 125°03'0 0.0
2018-Jul-08 07:00N 50°07' W 125°03'0 0.0
2018-Jul-08 06:30N 50°07' W 125°03'0 0.0
2018-Jul-08 06:00N 50°07' W 125°03'0 0.0
2018-Jul-08 05:30N 50°07' W 125°03'0 0.0
2018-Jul-08 05:00N 50°07' W 125°03'0 0.0
2018-Jul-08 04:30N 50°07' W 125°03'0 0.0
2018-Jul-08 04:00N 50°07' W 125°03'0 0.0
2018-Jul-08 03:30N 50°07' W 125°03'0 0.0
2018-Jul-08 03:00N 50°07' W 125°03'0 0.0
2018-Jul-08 02:30N 50°07' W 125°03'4 7.4
2018-Jul-08 02:00N 50°07' W 125°09'2 4.7
2018-Jul-08 01:30N 50°06' W 125°13'5 9.4
2018-Jul-08 01:00N 50°06' W 125°05'0 0.7
2018-Jul-08 00:30N 50°06' W 125°06'4 8.7
2018-Jul-08 00:00N 50°06' W 125°13'0 0.1
2018-Jul-07 23:30N 50°06' W 125°13'510.9
2018-Jul-07 23:00N 50°06' W 125°04'2 3.6
2018-Jul-07 22:30N 50°06' W 125°07'4 7.2
2018-Jul-07 22:00N 50°06' W 125°13'0 0.9
2018-Jul-07 21:30N 50°07' W 125°12'611.5
2018-Jul-07 21:00N 50°06' W 125°03'3 5.6
2018-Jul-07 20:30N 50°06' W 125°08'3 6.4
2018-Jul-07 20:00N 50°06' W 125°13'0 0.9
2018-Jul-07 19:30N 50°07' W 125°12'611.6
2018-Jul-07 19:00N 50°06' W 125°03'2 4.1
2018-Jul-07 18:30N 50°07' W 125°06'4 8.1
2018-Jul-07 18:00N 50°06' W 125°13'1 1.6
2018-Jul-07 17:31N 50°07' W 125°12'510.8
2018-Jul-07 17:00N 50°07' W 125°03'2 4.3
2018-Jul-07 16:30N 50°07' W 125°07'4 7.8
2018-Jul-07 16:00N 50°06' W 125°13'0 0.0
2018-Jul-07 15:30N 50°06' W 125°13'5 9.8
2018-Jul-07 15:00N 50°06' W 125°05'1 2.3
2018-Jul-07 14:30N 50°07' W 125°03'0 0.0
2018-Jul-07 14:00N 50°07' W 125°03'0 0.0
2018-Jul-07 13:30N 50°07' W 125°03'0 0.0
2018-Jul-07 13:00N 50°07' W 125°03'0 0.0
2018-Jul-07 12:30N 50°07' W 125°03'0 0.0
2018-Jul-07 12:00N 50°07' W 125°03'0 0.0
2018-Jul-07 11:30N 50°07' W 125°03'0 0.0
2018-Jul-07 11:00N 50°07' W 125°03'0 0.0
2018-Jul-07 10:30N 50°07' W 125°03'0 0.0
2018-Jul-07 10:00N 50°07' W 125°03'0 0.0
2018-Jul-07 09:30N 50°07' W 125°03'0 0.0
2018-Jul-07 09:00N 50°07' W 125°03'0 0.0
2018-Jul-07 08:30N 50°07' W 125°03'0 0.0
2018-Jul-07 08:00N 50°07' W 125°03'0 0.0
2018-Jul-07 07:30N 50°07' W 125°03'0 0.0
2018-Jul-07 07:00N 50°07' W 125°03'0 0.0
2018-Jul-07 06:30N 50°07' W 125°03'0 0.0
2018-Jul-07 06:00N 50°07' W 125°03'0 0.0
2018-Jul-07 05:30N 50°07' W 125°03'0 0.0
2018-Jul-07 05:00N 50°07' W 125°03'0 0.0
2018-Jul-07 04:30N 50°07' W 125°03'0 0.0
2018-Jul-07 04:00N 50°07' W 125°03'0 0.0
2018-Jul-07 03:30N 50°07' W 125°03'0 0.0
2018-Jul-07 03:00N 50°07' W 125°03'0 0.0
2018-Jul-07 02:30N 50°07' W 125°03'510.2
2018-Jul-07 02:00N 50°07' W 125°11'0 0.8
2018-Jul-07 01:30N 50°07' W 125°12'510.9
2018-Jul-07 01:00N 50°07' W 125°03'3 5.5
2018-Jul-07 00:30N 50°06' W 125°08'3 6.6
2018-Jul-07 00:00N 50°06' W 125°13'0 0.6
2018-Jul-06 23:30N 50°06' W 125°12'611.9
2018-Jul-06 23:01N 50°07' W 125°03'2 4.4
2018-Jul-06 22:30N 50°06' W 125°07'4 7.7
2018-Jul-06 22:00N 50°06' W 125°13'1 2.4
2018-Jul-06 21:30N 50°07' W 125°11'5 9.9
2018-Jul-06 21:00N 50°07' W 125°03'3 6.4
2018-Jul-06 20:30N 50°06' W 125°08'3 5.6
2018-Jul-06 20:00N 50°06' W 125°13'1 2.2
2018-Jul-06 19:30N 50°07' W 125°11'510.2
2018-Jul-06 19:00N 50°07' W 125°03'3 6.2
2018-Jul-06 18:30N 50°07' W 125°08'3 6.0
2018-Jul-06 18:00N 50°06' W 125°13'  

Dump ship's entire track history